Time;durP1;ratioP1;P1;durP2;ratioP2;P2;SDS_P1;SDS_P2;PMS_P1;PMS_P2;Temp;Humidity;BMP_temperature;BMP_pressure;BME280_temperature;BME280_humidity;BME280_pressure;Samples;Min_cycle;Max_cycle;Signal;HPM_P1;HPM_P2
2021/01/19 00:01:17;;;;;;;7.60;3.55;;;;;;;;;;5034873;28;20045;-70
2021/01/19 00:03:42;;;;;;;5.25;3.70;;;;;;;;;;5034526;28;20037;-70
2021/01/19 00:06:08;;;;;;;6.03;3.10;;;;;;;;;;5034509;28;20111;-70
2021/01/19 00:08:33;;;;;;;5.05;3.50;;;;;;;;;;5033269;28;20044;-70
2021/01/19 00:10:59;;;;;;;3.95;2.90;;;;;;;;;;5033651;28;20074;-70
2021/01/19 00:13:25;;;;;;;3.50;2.50;;;;;;;;;;5034825;28;20482;-68
2021/01/19 00:15:50;;;;;;;4.05;2.42;;;;;;;;;;5034157;28;20042;-67
2021/01/19 00:18:16;;;;;;;4.22;2.63;;;;;;;;;;5034426;28;20029;-67
2021/01/19 00:20:42;;;;;;;3.55;2.08;;;;;;;;;;5034353;28;20470;-68
2021/01/19 00:23:07;;;;;;;3.00;1.90;;;;;;;;;;5034341;28;20116;-68
2021/01/19 00:25:35;;;;;;;5.22;2.20;;;;;;;;;;5034057;28;20104;-68
2021/01/19 00:28:01;;;;;;;4.88;2.83;;;;;;;;;;5034623;28;20029;-67
2021/01/19 00:30:26;;;;;;;6.32;2.40;;;;;;;;;;5021711;28;20083;-67
2021/01/19 00:32:52;;;;;;;3.63;1.92;;;;;;;;;;5034266;28;20113;-68
2021/01/19 00:35:17;;;;;;;3.92;1.30;;;;;;;;;;5033889;28;20025;-68
2021/01/19 00:37:42;;;;;;;2.63;1.38;;;;;;;;;;5034166;28;20033;-68
2021/01/19 00:40:08;;;;;;;1.95;1.38;;;;;;;;;;5034368;28;20030;-68
2021/01/19 00:42:33;;;;;;;2.20;1.30;;;;;;;;;;5034287;28;20043;-68
2021/01/19 00:44:58;;;;;;;1.35;1.00;;;;;;;;;;5034295;28;20037;-68
2021/01/19 00:47:23;;;;;;;1.83;1.10;;;;;;;;;;5034145;28;20045;-68
2021/01/19 00:49:49;;;;;;;2.35;1.15;;;;;;;;;;5034188;28;20021;-67
2021/01/19 00:52:14;;;;;;;4.43;0.90;;;;;;;;;;5034213;28;20044;-68
2021/01/19 00:54:39;;;;;;;0.95;0.80;;;;;;;;;;5033590;28;20049;-67
2021/01/19 00:57:05;;;;;;;1.80;1.00;;;;;;;;;;5033440;28;20086;-67
2021/01/19 00:59:30;;;;;;;4.00;1.00;;;;;;;;;;5033586;28;20041;-68
2021/01/19 01:01:55;;;;;;;1.50;0.90;;;;;;;;;;5033199;28;20386;-67
2021/01/19 01:04:20;;;;;;;1.48;0.98;;;;;;;;;;5033341;28;20060;-67
2021/01/19 01:06:51;;;;;;;1.33;0.98;;;;;;;;;;5033062;28;20478;-67
2021/01/19 01:09:16;;;;;;;1.65;1.00;;;;;;;;;;5033796;28;20037;-68
2021/01/19 01:11:43;;;;;;;1.58;0.85;;;;;;;;;;5033755;28;20013;-67
2021/01/19 01:14:08;;;;;;;1.40;0.85;;;;;;;;;;5029484;28;20056;-70
2021/01/19 01:16:34;;;;;;;0.80;0.70;;;;;;;;;;5032572;28;20033;-70
2021/01/19 01:19:00;;;;;;;1.42;0.80;;;;;;;;;;5033315;28;20013;-70
2021/01/19 01:21:25;;;;;;;5.32;0.90;;;;;;;;;;5032418;28;20424;-70
2021/01/19 01:23:50;;;;;;;1.13;0.70;;;;;;;;;;5030206;28;20029;-70
2021/01/19 01:26:18;;;;;;;1.48;0.80;;;;;;;;;;5032617;28;20100;-70
2021/01/19 01:28:44;;;;;;;1.60;0.90;;;;;;;;;;5033497;28;20075;-70
2021/01/19 01:31:09;;;;;;;2.58;1.00;;;;;;;;;;5033360;28;20065;-70
2021/01/19 01:33:34;;;;;;;1.90;0.80;;;;;;;;;;5033544;28;20021;-67
2021/01/19 01:36:00;;;;;;;1.45;0.80;;;;;;;;;;5033273;28;20037;-67
2021/01/19 01:38:25;;;;;;;3.00;1.10;;;;;;;;;;5033608;28;20359;-67
2021/01/19 01:40:50;;;;;;;2.47;0.80;;;;;;;;;;5033037;28;20014;-67
2021/01/19 01:43:16;;;;;;;1.83;0.85;;;;;;;;;;5033428;28;20043;-68
2021/01/19 01:45:41;;;;;;;6.03;1.17;;;;;;;;;;5033216;28;20036;-68
2021/01/19 01:48:08;;;;;;;2.47;1.00;;;;;;;;;;5033063;28;20037;-67
2021/01/19 01:50:33;;;;;;;1.70;0.95;;;;;;;;;;5033162;28;20033;-68
2021/01/19 01:52:58;;;;;;;2.13;1.20;;;;;;;;;;5033009;28;20120;-68
2021/01/19 01:55:24;;;;;;;2.67;1.30;;;;;;;;;;5033136;28;20056;-68
2021/01/19 01:57:50;;;;;;;4.35;1.05;;;;;;;;;;5032908;28;20033;-68
2021/01/19 02:00:16;;;;;;;0.80;0.75;;;;;;;;;;5033004;28;20037;-68
2021/01/19 02:02:47;;;;;;;3.60;1.20;;;;;;;;;;5032815;28;20116;-68
2021/01/19 02:05:12;;;;;;;1.30;0.80;;;;;;;;;;5032362;28;20045;-68
2021/01/19 02:07:50;;;;;;;3.17;1.00;;;;;;;;;;5032722;28;20041;-68
2021/01/19 02:10:44;;;;;;;2.03;0.80;;;;;;;;;;5032859;28;20083;-68
2021/01/19 02:13:12;;;;;;;1.15;0.75;;;;;;;;;;5013051;28;20053;-68
2021/01/19 02:15:41;;;;;;;1.50;0.73;;;;;;;;;;5032465;28;20378;-68
2021/01/19 02:18:16;;;;;;;0.80;0.47;;;;;;;;;;5032691;28;20036;-68
2021/01/19 02:20:41;;;;;;;2.28;0.70;;;;;;;;;;5032744;28;20043;-68
2021/01/19 02:23:10;;;;;;;1.55;0.65;;;;;;;;;;5032558;28;20034;-68
2021/01/19 02:26:01;;;;;;;1.75;0.50;;;;;;;;;;5032419;28;20524;-67
2021/01/19 02:28:33;;;;;;;3.03;0.82;;;;;;;;;;5032682;28;20053;-68
2021/01/19 02:31:04;;;;;;;1.73;0.70;;;;;;;;;;5032384;28;20033;-67
2021/01/19 02:33:39;;;;;;;2.47;0.50;;;;;;;;;;5032459;28;20459;-68
2021/01/19 02:36:04;;;;;;;0.80;0.50;;;;;;;;;;5032510;28;20037;-67
2021/01/19 02:38:35;;;;;;;2.88;0.68;;;;;;;;;;5032691;28;20033;-67
2021/01/19 02:41:02;;;;;;;1.05;0.52;;;;;;;;;;5032297;28;20191;-67
2021/01/19 02:43:28;;;;;;;2.22;0.90;;;;;;;;;;5032685;28;20068;-68
2021/01/19 02:45:53;;;;;;;3.08;0.80;;;;;;;;;;5032387;28;20351;-68
2021/01/19 02:48:19;;;;;;;1.58;0.80;;;;;;;;;;5032382;28;20044;-67
2021/01/19 02:50:45;;;;;;;1.50;0.60;;;;;;;;;;5032384;28;20044;-68
2021/01/19 02:53:10;;;;;;;1.55;0.63;;;;;;;;;;5032330;28;20034;-68
2021/01/19 02:55:36;;;;;;;0.82;0.70;;;;;;;;;;5032458;28;20460;-68
2021/01/19 02:58:05;;;;;;;1.45;0.70;;;;;;;;;;5032213;28;20032;-68
2021/01/19 03:00:35;;;;;;;1.15;0.70;;;;;;;;;;5032010;28;20474;-68
2021/01/19 03:03:01;;;;;;;2.33;1.02;;;;;;;;;;5032029;28;20025;-68
2021/01/19 03:05:27;;;;;;;1.02;0.77;;;;;;;;;;5032340;28;20049;-68
2021/01/19 03:07:53;;;;;;;1.80;0.90;;;;;;;;;;5032074;28;20102;-67
2021/01/19 03:10:18;;;;;;;1.05;0.75;;;;;;;;;;5032055;28;20050;-67
2021/01/19 03:12:45;;;;;;;1.27;0.98;;;;;;;;;;5031721;28;20087;-67
2021/01/19 03:15:11;;;;;;;2.95;0.82;;;;;;;;;;5032244;28;20071;-68
2021/01/19 03:17:36;;;;;;;0.85;0.75;;;;;;;;;;5034987;28;20021;-68
2021/01/19 03:20:03;;;;;;;3.33;0.95;;;;;;;;;;5035570;28;20064;-67
2021/01/19 03:22:28;;;;;;;1.83;1.00;;;;;;;;;;5035889;28;20429;-68
2021/01/19 03:24:54;;;;;;;1.95;0.85;;;;;;;;;;5035952;28;20024;-68
2021/01/19 03:27:19;;;;;;;3.90;1.20;;;;;;;;;;5035841;28;20753;-68
2021/01/19 03:29:44;;;;;;;1.70;1.10;;;;;;;;;;5035865;28;20482;-68
2021/01/19 03:32:09;;;;;;;2.30;1.02;;;;;;;;;;5035307;28;20025;-68
2021/01/19 03:34:35;;;;;;;3.42;1.20;;;;;;;;;;5035834;28;20040;-67
2021/01/19 03:37:01;;;;;;;3.28;1.40;;;;;;;;;;5035440;28;20029;-67
2021/01/19 03:39:26;;;;;;;2.03;1.27;;;;;;;;;;5035728;28;20048;-68
2021/01/19 03:41:51;;;;;;;3.72;1.30;;;;;;;;;;5035230;28;20504;-67
2021/01/19 03:44:16;;;;;;;2.67;1.50;;;;;;;;;;5035618;28;20104;-68
2021/01/19 03:46:42;;;;;;;4.10;1.45;;;;;;;;;;5035234;28;20057;-67
2021/01/19 03:49:07;;;;;;;2.63;1.30;;;;;;;;;;5035462;28;20390;-68
2021/01/19 03:51:32;;;;;;;3.47;1.27;;;;;;;;;;5035539;28;20033;-67
2021/01/19 03:53:58;;;;;;;3.53;1.38;;;;;;;;;;5034985;28;20022;-68
2021/01/19 03:56:23;;;;;;;4.50;1.00;;;;;;;;;;5035135;28;20036;-68
2021/01/19 03:58:48;;;;;;;2.00;1.10;;;;;;;;;;5035177;28;20033;-68
2021/01/19 04:01:14;;;;;;;2.92;1.33;;;;;;;;;;5035165;28;20459;-67
2021/01/19 04:03:39;;;;;;;5.47;1.17;;;;;;;;;;5035244;28;20033;-67
2021/01/19 04:06:07;;;;;;;3.08;1.30;;;;;;;;;;5035245;28;20038;-68
2021/01/19 04:08:33;;;;;;;2.42;1.10;;;;;;;;;;5034607;28;20382;-67
2021/01/19 04:11:00;;;;;;;3.90;1.20;;;;;;;;;;5035003;28;20053;-68
2021/01/19 04:13:25;;;;;;;1.88;1.40;;;;;;;;;;5034865;28;20424;-68
2021/01/19 04:15:50;;;;;;;6.30;1.20;;;;;;;;;;5034904;28;20121;-68
2021/01/19 04:18:16;;;;;;;4.25;1.67;;;;;;;;;;5034776;28;20038;-68
2021/01/19 04:20:41;;;;;;;4.72;1.30;;;;;;;;;;5035141;28;20033;-68
2021/01/19 04:23:06;;;;;;;4.32;1.58;;;;;;;;;;5034698;28;20021;-70
2021/01/19 04:25:32;;;;;;;2.45;1.17;;;;;;;;;;5034540;28;20053;-70
2021/01/19 04:27:57;;;;;;;3.95;1.20;;;;;;;;;;5033822;28;20045;-70
2021/01/19 04:30:22;;;;;;;3.13;1.20;;;;;;;;;;5034722;28;20025;-70
2021/01/19 04:32:48;;;;;;;1.50;0.90;;;;;;;;;;5034071;28;20030;-70
2021/01/19 04:35:14;;;;;;;2.22;1.30;;;;;;;;;;5034639;28;20108;-68
2021/01/19 04:37:39;;;;;;;3.70;1.10;;;;;;;;;;5033928;28;20030;-68
2021/01/19 04:40:05;;;;;;;1.40;1.00;;;;;;;;;;5033981;28;20121;-68
2021/01/19 04:42:34;;;;;;;2.97;1.20;;;;;;;;;;5034437;28;20030;-68
2021/01/19 04:45:07;;;;;;;2.42;1.20;;;;;;;;;;5034049;28;20791;-68
2021/01/19 04:47:33;;;;;;;3.88;1.13;;;;;;;;;;5034234;28;20103;-68
2021/01/19 04:49:59;;;;;;;2.63;1.27;;;;;;;;;;5034131;28;20476;-68
2021/01/19 04:52:26;;;;;;;1.95;1.02;;;;;;;;;;5034186;28;20343;-68
2021/01/19 04:54:54;;;;;;;1.13;0.90;;;;;;;;;;5034181;28;20034;-68
2021/01/19 04:57:19;;;;;;;4.25;1.73;;;;;;;;;;5033540;28;20021;-68
2021/01/19 04:59:53;;;;;;;4.65;1.00;;;;;;;;;;5033531;28;20366;-67
2021/01/19 05:02:36;;;;;;;1.90;1.00;;;;;;;;;;5033383;28;20091;-68
2021/01/19 05:05:17;;;;;;;2.15;0.80;;;;;;;;;;5033068;28;20057;-68
2021/01/19 05:07:50;;;;;;;3.53;1.10;;;;;;;;;;5033020;28;20073;-68
2021/01/19 05:10:21;;;;;;;2.08;0.90;;;;;;;;;;5033251;28;20129;-68
2021/01/19 05:12:51;;;;;;;2.38;1.00;;;;;;;;;;5033364;28;20040;-68
2021/01/19 05:15:16;;;;;;;3.45;0.70;;;;;;;;;;5033599;28;20021;-69
2021/01/19 05:17:42;;;;;;;2.40;0.80;;;;;;;;;;5033717;28;20493;-68
2021/01/19 05:20:08;;;;;;;2.05;0.88;;;;;;;;;;5033679;28;20101;-68
2021/01/19 05:22:34;;;;;;;1.00;0.70;;;;;;;;;;5033950;28;20520;-68
2021/01/19 05:24:59;;;;;;;2.80;1.10;;;;;;;;;;5033336;28;20053;-68
2021/01/19 05:27:24;;;;;;;1.88;0.90;;;;;;;;;;5033361;28;20116;-68
2021/01/19 05:30:00;;;;;;;2.35;0.80;;;;;;;;;;5033518;28;20025;-68
2021/01/19 05:32:37;;;;;;;2.70;0.80;;;;;;;;;;5033203;28;20489;-68
2021/01/19 05:35:14;;;;;;;1.67;0.70;;;;;;;;;;5033331;28;20116;-68
2021/01/19 05:37:56;;;;;;;2.40;0.80;;;;;;;;;;5032099;28;20059;-68
2021/01/19 05:40:22;;;;;;;3.80;1.00;;;;;;;;;;5032357;28;20022;-68
2021/01/19 05:42:47;;;;;;;3.30;1.20;;;;;;;;;;5033166;28;20103;-68
2021/01/19 05:45:13;;;;;;;5.82;1.27;;;;;;;;;;5033638;28;20366;-68
2021/01/19 05:47:38;;;;;;;4.65;1.15;;;;;;;;;;5033085;28;20044;-68
2021/01/19 05:50:04;;;;;;;3.28;1.00;;;;;;;;;;5033341;28;20076;-68
2021/01/19 05:52:31;;;;;;;3.65;1.08;;;;;;;;;;5032787;28;20080;-68
2021/01/19 05:54:57;;;;;;;2.20;0.98;;;;;;;;;;5032757;28;20462;-68
2021/01/19 05:57:24;;;;;;;3.38;1.13;;;;;;;;;;5033002;28;20033;-68
2021/01/19 05:59:53;;;;;;;1.17;0.73;;;;;;;;;;5032945;28;20017;-67
2021/01/19 06:02:20;;;;;;;1.67;0.90;;;;;;;;;;5032964;28;20029;-68
2021/01/19 06:04:49;;;;;;;2.13;0.60;;;;;;;;;;5032966;28;20029;-67
2021/01/19 06:07:20;;;;;;;0.90;0.60;;;;;;;;;;5032804;28;20120;-68
2021/01/19 06:09:46;;;;;;;1.52;0.70;;;;;;;;;;5032751;28;20045;-68
2021/01/19 06:12:12;;;;;;;1.73;0.70;;;;;;;;;;5032351;28;20395;-68
2021/01/19 06:14:38;;;;;;;1.95;0.70;;;;;;;;;;5032896;28;20079;-68
2021/01/19 06:17:04;;;;;;;0.93;0.60;;;;;;;;;;5032563;28;20037;-68
2021/01/19 06:19:31;;;;;;;1.45;0.70;;;;;;;;;;5032749;28;20041;-68
2021/01/19 06:21:56;;;;;;;1.10;0.63;;;;;;;;;;5032357;28;20462;-68
2021/01/19 06:24:35;;;;;;;2.35;0.80;;;;;;;;;;5032752;28;20071;-68
2021/01/19 06:27:01;;;;;;;1.13;0.60;;;;;;;;;;5032425;28;20073;-69
2021/01/19 06:29:28;;;;;;;0.40;0.40;;;;;;;;;;5032709;28;20076;-68
2021/01/19 06:31:55;;;;;;;1.75;0.55;;;;;;;;;;5064556;28;20437;-68
2021/01/19 06:34:26;;;;;;;0.52;0.50;;;;;;;;;;5032563;28;20043;-68
2021/01/19 06:36:51;;;;;;;1.30;0.50;;;;;;;;;;5032442;28;20025;-68
2021/01/19 06:39:32;;;;;;;2.78;0.85;;;;;;;;;;5032690;28;20032;-70
2021/01/19 06:42:04;;;;;;;1.98;0.70;;;;;;;;;;5032054;28;20458;-71
2021/01/19 06:44:34;;;;;;;1.42;0.90;;;;;;;;;;5032623;28;20061;-71
2021/01/19 06:47:01;;;;;;;3.95;1.25;;;;;;;;;;5030913;28;20428;-70
2021/01/19 06:49:28;;;;;;;1.30;1.00;;;;;;;;;;5032225;28;20482;-71
2021/01/19 06:51:56;;;;;;;2.10;1.30;;;;;;;;;;5034080;28;20056;-69
2021/01/19 06:54:22;;;;;;;2.90;1.50;;;;;;;;;;5036492;28;20029;-70
2021/01/19 06:56:54;;;;;;;5.05;1.52;;;;;;;;;;5036378;28;20196;-68
2021/01/19 06:59:29;;;;;;;5.68;1.67;;;;;;;;;;5036458;28;20017;-68
2021/01/19 07:01:56;;;;;;;3.47;1.73;;;;;;;;;;5036175;28;20068;-68
2021/01/19 07:04:23;;;;;;;2.35;1.52;;;;;;;;;;5035936;28;20573;-70
2021/01/19 07:07:05;;;;;;;2.20;1.15;;;;;;;;;;5036128;28;20112;-70
2021/01/19 07:09:49;;;;;;;2.55;1.33;;;;;;;;;;5036099;28;20037;-70
2021/01/19 07:12:20;;;;;;;4.78;1.63;;;;;;;;;;5036019;28;20076;-69
2021/01/19 07:14:57;;;;;;;5.22;1.38;;;;;;;;;;5036215;28;20060;-69
2021/01/19 07:17:26;;;;;;;3.47;1.50;;;;;;;;;;5035950;28;20033;-71
2021/01/19 07:19:51;;;;;;;3.22;1.70;;;;;;;;;;5036104;28;20037;-69
2021/01/19 07:22:35;;;;;;;5.93;2.92;;;;;;;;;;5035876;28;20075;-70
2021/01/19 07:25:00;;;;;;;6.28;2.55;;;;;;;;;;5035793;28;20030;-70
2021/01/19 07:27:26;;;;;;;5.30;2.42;;;;;;;;;;5035786;28;20060;-70
2021/01/19 07:29:51;;;;;;;8.40;2.85;;;;;;;;;;5035890;28;20025;-70
2021/01/19 07:32:27;;;;;;;3.05;1.60;;;;;;;;;;5035636;28;20030;-70
2021/01/19 07:34:53;;;;;;;36.63;11.52;;;;;;;;;;5035696;28;20029;-70
2021/01/19 07:37:29;;;;;;;7.78;2.63;;;;;;;;;;5035856;28;20044;-70
2021/01/19 07:39:54;;;;;;;;;;;;;;;;;;5036037;28;20034;-70
2021/01/19 07:42:19;;;;;;;;;;;;;;;;;;5035820;28;20316;-70
2021/01/19 07:45:13;;;;;;;10.63;4.13;;;;;;;;;;5035685;28;19912;-70
2021/01/19 07:47:40;;;;;;;18.00;5.60;;;;;;;;;;5030497;28;20060;-70
2021/01/19 07:50:07;;;;;;;82.47;30.17;;;;;;;;;;5035203;28;20030;-70
2021/01/19 07:52:36;;;;;;;68.82;31.65;;;;;;;;;;5035284;28;20026;-70
2021/01/19 07:55:11;;;;;;;5.80;2.50;;;;;;;;;;5035204;28;20033;-70
2021/01/19 07:57:37;;;;;;;9.20;3.40;;;;;;;;;;5034929;28;20378;-70
2021/01/19 08:00:03;;;;;;;13.30;5.65;;;;;;;;;;5035256;28;20037;-70
2021/01/19 08:02:28;;;;;;;10.57;4.35;;;;;;;;;;5034608;28;20030;-70
2021/01/19 08:05:06;;;;;;;9.98;4.18;;;;;;;;;;5034447;28;20067;-70
2021/01/19 08:07:40;;;;;;;5.35;2.50;;;;;;;;;;5035033;28;20386;-70
2021/01/19 08:10:21;;;;;;;9.35;3.42;;;;;;;;;;5034918;28;20077;-70
2021/01/19 08:12:48;;;;;;;6.80;2.15;;;;;;;;;;5035041;28;20044;-69
2021/01/19 08:15:20;;;;;;;6.13;2.50;;;;;;;;;;5034956;28;20044;-69
2021/01/19 08:17:48;;;;;;;7.20;1.83;;;;;;;;;;5034888;28;20083;-70
2021/01/19 08:20:22;;;;;;;4.35;2.03;;;;;;;;;;5034878;28;20034;-70
2021/01/19 08:22:47;;;;;;;6.22;2.78;;;;;;;;;;5034769;28;20087;-70
2021/01/19 08:25:21;;;;;;;5.95;1.70;;;;;;;;;;5034783;28;20029;-70
2021/01/19 08:27:47;;;;;;;6.63;2.28;;;;;;;;;;5034680;28;20052;-70
2021/01/19 08:30:26;;;;;;;3.92;1.20;;;;;;;;;;5034594;28;20481;-69
2021/01/19 08:32:52;;;;;;;5.90;2.00;;;;;;;;;;5034560;28;20025;-69
2021/01/19 08:35:18;;;;;;;6.32;1.75;;;;;;;;;;5034642;28;20029;-70
2021/01/19 08:38:03;;;;;;;5.90;1.50;;;;;;;;;;5034574;28;20033;-70
2021/01/19 08:40:30;;;;;;;8.35;3.22;;;;;;;;;;5034088;28;20500;-70
2021/01/19 08:42:56;;;;;;;4.47;1.63;;;;;;;;;;5034432;28;20091;-70
2021/01/19 08:45:31;;;;;;;8.57;2.17;;;;;;;;;;5034421;28;20112;-70
2021/01/19 08:47:58;;;;;;;6.07;2.65;;;;;;;;;;5034245;28;20037;-70
2021/01/19 08:50:24;;;;;;;9.98;1.85;;;;;;;;;;5034406;28;20037;-70
2021/01/19 08:52:50;;;;;;;6.82;1.45;;;;;;;;;;5034121;28;20369;-69
2021/01/19 08:55:25;;;;;;;6.43;1.17;;;;;;;;;;5034191;28;20034;-70
2021/01/19 08:57:58;;;;;;;2.22;0.60;;;;;;;;;;5033789;28;20071;-70
2021/01/19 09:00:27;;;;;;;3.60;1.05;;;;;;;;;;5034152;28;20113;-70
2021/01/19 09:02:53;;;;;;;3.30;0.60;;;;;;;;;;5034252;28;20033;-69
2021/01/19 09:05:24;;;;;;;2.35;0.77;;;;;;;;;;5034061;28;20056;-70
2021/01/19 09:07:49;;;;;;;5.90;0.77;;;;;;;;;;5033848;28;20049;-70
2021/01/19 09:10:21;;;;;;;4.00;0.70;;;;;;;;;;5033732;28;20107;-69
2021/01/19 09:12:47;;;;;;;2.63;0.60;;;;;;;;;;5033298;28;20532;-70
2021/01/19 09:15:14;;;;;;;4.85;1.05;;;;;;;;;;5032820;28;20029;-70
2021/01/19 09:17:39;;;;;;;1.60;0.35;;;;;;;;;;5032950;28;20091;-70
2021/01/19 09:20:08;;;;;;;4.05;1.27;;;;;;;;;;5033456;28;20053;-69
2021/01/19 09:22:34;;;;;;;7.57;1.10;;;;;;;;;;5033585;28;20036;-70
2021/01/19 09:25:00;;;;;;;3.97;1.00;;;;;;;;;;5033619;28;20045;-69
2021/01/19 09:27:25;;;;;;;5.22;0.90;;;;;;;;;;5033129;28;20032;-70
2021/01/19 09:29:50;;;;;;;1.98;0.60;;;;;;;;;;5033528;28;20043;-70
2021/01/19 09:32:17;;;;;;;5.35;1.15;;;;;;;;;;5033167;28;20038;-70
2021/01/19 09:34:44;;;;;;;7.55;3.03;;;;;;;;;;5033410;28;20025;-70
2021/01/19 09:37:11;;;;;;;3.13;0.75;;;;;;;;;;5027585;28;20037;-69
2021/01/19 09:39:37;;;;;;;2.28;0.50;;;;;;;;;;5029993;28;20033;-69
2021/01/19 09:42:05;;;;;;;5.32;1.60;;;;;;;;;;5029319;28;20060;-69
2021/01/19 09:44:32;;;;;;;4.22;0.70;;;;;;;;;;5029482;28;20482;-72
2021/01/19 09:47:02;;;;;;;9.48;1.55;;;;;;;;;;5029749;28;20541;-70
2021/01/19 09:49:28;;;;;;;12.15;1.10;;;;;;;;;;5030576;28;20025;-70
2021/01/19 09:51:53;;;;;;;10.38;1.38;;;;;;;;;;5029811;28;20459;-69
2021/01/19 09:54:22;;;;;;;10.00;1.25;;;;;;;;;;5023583;28;20036;-69
2021/01/19 09:56:57;;;;;;;8.95;1.20;;;;;;;;;;5026732;28;20033;-69
2021/01/19 09:59:26;;;;;;;8.75;1.08;;;;;;;;;;5028522;28;20021;-70
2021/01/19 10:01:54;;;;;;;10.65;1.70;;;;;;;;;;5009735;28;20034;-69
2021/01/19 10:04:19;;;;;;;7.53;1.30;;;;;;;;;;5008413;28;20437;-69
2021/01/19 10:06:45;;;;;;;8.10;1.45;;;;;;;;;;5009595;28;20022;-70
2021/01/19 10:09:19;;;;;;;5.70;1.20;;;;;;;;;;5009427;28;20037;-70
2021/01/19 10:11:45;;;;;;;6.22;1.25;;;;;;;;;;5010268;28;20140;-70
2021/01/19 10:14:15;;;;;;;6.10;1.15;;;;;;;;;;5021670;28;20622;-69
2021/01/19 10:16:41;;;;;;;12.88;1.52;;;;;;;;;;5030037;28;20025;-69
2021/01/19 10:19:06;;;;;;;12.98;1.65;;;;;;;;;;5029743;28;20382;-69
2021/01/19 10:21:32;;;;;;;3.13;0.90;;;;;;;;;;5029843;28;20029;-70
2021/01/19 10:23:57;;;;;;;4.93;1.10;;;;;;;;;;5029904;28;20370;-70
2021/01/19 10:26:27;;;;;;;3.70;0.82;;;;;;;;;;5028487;28;20132;-69
2021/01/19 10:28:54;;;;;;;9.07;1.05;;;;;;;;;;5029957;28;20041;-69
2021/01/19 10:31:22;;;;;;;3.83;0.98;;;;;;;;;;5029980;28;20458;-69
2021/01/19 10:33:56;;;;;;;5.40;0.80;;;;;;;;;;5030009;28;20017;-69
2021/01/19 10:36:22;;;;;;;8.05;1.20;;;;;;;;;;5030089;28;20025;-69
2021/01/19 10:38:47;;;;;;;7.13;1.42;;;;;;;;;;5030069;28;20434;-69
2021/01/19 10:41:22;;;;;;;43.45;8.10;;;;;;;;;;5030576;28;20025;-69
2021/01/19 10:43:50;;;;;;;4.57;1.50;;;;;;;;;;5029788;28;20079;-69
2021/01/19 10:46:22;;;;;;;6.90;1.63;;;;;;;;;;5030136;28;20350;-68
2021/01/19 10:48:57;;;;;;;11.70;4.15;;;;;;;;;;5029420;28;20026;-69
2021/01/19 10:51:23;;;;;;;;;;;;;;;;;;5025292;28;20021;-69
2021/01/19 10:53:48;;;;;;;11.07;3.72;;;;;;;;;;5028791;28;20272;-69
2021/01/19 10:56:14;;;;;;;7.07;2.15;;;;;;;;;;5029651;28;20025;-70
2021/01/19 10:58:39;;;;;;;18.27;4.00;;;;;;;;;;5028976;28;20049;-69
2021/01/19 11:01:05;;;;;;;15.30;6.07;;;;;;;;;;5029520;28;20092;-69
2021/01/19 11:03:30;;;;;;;8.45;2.33;;;;;;;;;;5029720;28;20369;-69
2021/01/19 11:05:55;;;;;;;22.75;8.65;;;;;;;;;;5029646;28;20021;-69
2021/01/19 11:08:20;;;;;;;11.30;3.80;;;;;;;;;;5029552;28;20412;-68
2021/01/19 11:10:46;;;;;;;8.63;2.70;;;;;;;;;;5025805;28;20441;-69
2021/01/19 11:13:11;;;;;;;12.13;2.10;;;;;;;;;;5026612;28;20029;-69
2021/01/19 11:15:36;;;;;;;10.85;3.20;;;;;;;;;;5030280;28;20343;-69
2021/01/19 11:18:01;;;;;;;6.65;1.60;;;;;;;;;;5029860;28;20029;-70
2021/01/19 11:20:27;;;;;;;5.97;1.20;;;;;;;;;;5029728;28;20030;-70
2021/01/19 11:22:52;;;;;;;7.00;1.35;;;;;;;;;;5029398;28;20013;-69
2021/01/19 11:25:18;;;;;;;9.25;1.52;;;;;;;;;;5029497;28;20036;-70
2021/01/19 11:27:43;;;;;;;8.77;1.85;;;;;;;;;;5028931;28;20385;-68
2021/01/19 11:30:09;;;;;;;14.13;3.92;;;;;;;;;;5030444;28;20021;-70
2021/01/19 11:32:34;;;;;;;6.43;2.30;;;;;;;;;;5029382;28;20114;-70
2021/01/19 11:35:00;;;;;;;14.18;2.63;;;;;;;;;;5029441;28;20057;-70
2021/01/19 11:37:25;;;;;;;13.30;2.85;;;;;;;;;;5030361;28;20430;-70
2021/01/19 11:39:51;;;;;;;12.30;2.72;;;;;;;;;;5029327;28;20031;-70
2021/01/19 11:42:16;;;;;;;11.93;2.17;;;;;;;;;;5032578;28;20151;-70
2021/01/19 11:44:41;;;;;;;10.05;3.40;;;;;;;;;;5032517;28;20092;-70
2021/01/19 11:47:07;;;;;;;19.92;7.80;;;;;;;;;;5030294;28;20101;-70
2021/01/19 11:49:32;;;;;;;10.32;2.38;;;;;;;;;;5032500;28;20026;-70
2021/01/19 11:51:58;;;;;;;10.13;4.80;;;;;;;;;;5032370;28;20018;-70
2021/01/19 11:54:23;;;;;;;11.23;3.47;;;;;;;;;;5032049;28;20037;-69
2021/01/19 11:56:49;;;;;;;13.32;2.38;;;;;;;;;;5032728;28;20085;-69
2021/01/19 11:59:15;;;;;;;9.80;1.33;;;;;;;;;;5029301;28;20422;-69
2021/01/19 12:01:40;;;;;;;9.95;2.00;;;;;;;;;;5032006;28;20033;-69
2021/01/19 12:04:07;;;;;;;7.25;1.63;;;;;;;;;;5029788;28;20032;-70
2021/01/19 12:06:33;;;;;;;8.23;2.00;;;;;;;;;;5031487;28;20023;-70
2021/01/19 12:08:58;;;;;;;10.80;2.10;;;;;;;;;;5031913;28;20116;-70
2021/01/19 12:11:23;;;;;;;6.53;2.47;;;;;;;;;;5032429;28;20049;-68
2021/01/19 12:13:49;;;;;;;8.63;1.35;;;;;;;;;;5032408;28;20525;-70
2021/01/19 12:16:18;;;;;;;6.47;2.38;;;;;;;;;;5020563;28;20232;-70
2021/01/19 12:18:47;;;;;;;8.35;2.63;;;;;;;;;;5028750;28;20083;-69
2021/01/19 12:21:12;;;;;;;1.85;0.93;;;;;;;;;;5031616;28;20113;-70
2021/01/19 12:23:37;;;;;;;8.10;3.00;;;;;;;;;;5031912;28;20472;-70
2021/01/19 12:26:03;;;;;;;4.82;1.58;;;;;;;;;;5031273;28;20029;-71
2021/01/19 12:28:28;;;;;;;9.88;2.70;;;;;;;;;;5031299;28;20049;-68
2021/01/19 12:30:54;;;;;;;7.75;2.88;;;;;;;;;;5031912;28;20087;-70
2021/01/19 12:33:20;;;;;;;7.72;1.73;;;;;;;;;;5031400;28;20041;-70
2021/01/19 12:35:45;;;;;;;11.27;1.75;;;;;;;;;;5031564;28;20071;-69
2021/01/19 12:38:10;;;;;;;3.85;0.90;;;;;;;;;;5031098;28;20476;-70
2021/01/19 12:40:36;;;;;;;5.72;1.70;;;;;;;;;;5032017;28;20024;-70
2021/01/19 12:43:02;;;;;;;5.47;1.33;;;;;;;;;;5032050;28;20052;-69
2021/01/19 12:45:27;;;;;;;5.65;2.10;;;;;;;;;;5032354;28;20091;-70
2021/01/19 12:47:52;;;;;;;9.05;2.22;;;;;;;;;;5031973;28;20077;-69
2021/01/19 12:50:18;;;;;;;6.80;2.40;;;;;;;;;;5031328;28;20021;-69
2021/01/19 12:52:43;;;;;;;2.97;0.75;;;;;;;;;;5029092;28;20052;-70
2021/01/19 12:55:09;;;;;;;10.10;4.57;;;;;;;;;;5031788;28;20036;-69
2021/01/19 12:57:34;;;;;;;8.02;2.92;;;;;;;;;;5029501;28;20029;-70
2021/01/19 13:00:00;;;;;;;6.03;1.17;;;;;;;;;;5031896;28;20033;-69
2021/01/19 13:02:25;;;;;;;13.20;4.18;;;;;;;;;;5031525;28;20490;-69
2021/01/19 13:04:50;;;;;;;6.40;1.13;;;;;;;;;;5031542;28;20507;-70
2021/01/19 13:07:16;;;;;;;4.55;1.40;;;;;;;;;;5031120;28;20076;-69
2021/01/19 13:09:41;;;;;;;5.22;1.77;;;;;;;;;;5031450;28;20147;-70
2021/01/19 13:12:09;;;;;;;7.65;1.20;;;;;;;;;;5031836;28;20099;-70
2021/01/19 13:14:34;;;;;;;7.80;1.90;;;;;;;;;;5027116;28;20033;-70
2021/01/19 13:17:00;;;;;;;10.23;2.38;;;;;;;;;;5030563;28;20032;-69
2021/01/19 13:19:25;;;;;;;8.15;2.10;;;;;;;;;;5030725;28;20021;-69
2021/01/19 13:21:50;;;;;;;5.15;1.15;;;;;;;;;;5030512;28;20425;-69
2021/01/19 13:24:15;;;;;;;4.75;1.60;;;;;;;;;;5029843;28;20029;-69
2021/01/19 13:26:41;;;;;;;7.82;2.03;;;;;;;;;;5030972;28;20010;-70
2021/01/19 13:29:07;;;;;;;9.05;1.65;;;;;;;;;;5030265;28;20041;-69
2021/01/19 13:31:32;;;;;;;11.55;1.70;;;;;;;;;;5030655;28;20025;-70
2021/01/19 13:33:57;;;;;;;12.57;2.80;;;;;;;;;;5029941;28;20021;-69
2021/01/19 13:36:22;;;;;;;7.32;2.85;;;;;;;;;;5030086;28;20029;-70
2021/01/19 13:38:48;;;;;;;5.25;1.60;;;;;;;;;;5030162;28;20041;-69
2021/01/19 13:41:14;;;;;;;5.05;1.38;;;;;;;;;;5030545;28;20474;-70
2021/01/19 13:43:39;;;;;;;12.23;2.22;;;;;;;;;;5026002;28;20026;-69
2021/01/19 13:46:06;;;;;;;8.80;1.83;;;;;;;;;;5027106;28;20098;-69
2021/01/19 13:48:31;;;;;;;6.90;1.70;;;;;;;;;;5025830;28;20033;-70
2021/01/19 13:50:56;;;;;;;7.13;2.08;;;;;;;;;;5029368;28;20033;-69
2021/01/19 13:53:22;;;;;;;9.73;3.45;;;;;;;;;;5029356;28;20103;-69
2021/01/19 13:55:47;;;;;;;6.65;1.80;;;;;;;;;;5026971;28;20088;-68
2021/01/19 13:58:12;;;;;;;9.38;1.08;;;;;;;;;;5029386;28;20063;-70
2021/01/19 14:00:37;;;;;;;5.05;1.85;;;;;;;;;;5027080;28;20029;-69
2021/01/19 14:03:04;;;;;;;9.90;1.73;;;;;;;;;;5027374;28;20365;-69
2021/01/19 14:05:30;;;;;;;8.50;2.00;;;;;;;;;;5029827;28;20038;-70
2021/01/19 14:07:55;;;;;;;9.50;1.52;;;;;;;;;;5029242;28;20048;-69
2021/01/19 14:10:20;;;;;;;8.00;1.85;;;;;;;;;;5030345;28;20073;-69
2021/01/19 14:12:46;;;;;;;8.02;2.00;;;;;;;;;;5030239;28;20037;-69
2021/01/19 14:15:11;;;;;;;6.80;1.30;;;;;;;;;;5029239;28;20025;-69
2021/01/19 14:17:37;;;;;;;4.93;1.33;;;;;;;;;;5028851;28;20121;-69
2021/01/19 14:20:02;;;;;;;10.73;1.90;;;;;;;;;;5026241;28;20037;-69
2021/01/19 14:22:28;;;;;;;16.92;3.35;;;;;;;;;;5025677;28;20092;-69
2021/01/19 14:24:54;;;;;;;8.63;2.08;;;;;;;;;;5029499;28;20064;-69
2021/01/19 14:27:19;;;;;;;6.53;1.38;;;;;;;;;;5028204;28;20486;-69
2021/01/19 14:29:44;;;;;;;8.85;1.70;;;;;;;;;;5028280;28;20027;-69
2021/01/19 14:32:09;;;;;;;8.32;1.40;;;;;;;;;;5029046;28;20068;-70
2021/01/19 14:34:35;;;;;;;15.13;1.75;;;;;;;;;;5029313;28;20037;-69
2021/01/19 14:37:00;;;;;;;9.32;2.53;;;;;;;;;;5029687;28;20095;-69
2021/01/19 14:39:25;;;;;;;6.70;1.80;;;;;;;;;;5028836;28;20076;-69
2021/01/19 14:41:51;;;;;;;6.60;1.80;;;;;;;;;;5029565;28;20041;-70
2021/01/19 14:44:16;;;;;;;12.15;3.03;;;;;;;;;;5029891;28;20116;-70